Netarts, Oregon
Current Conditions -  °F | °C
As of 3:35 PM on Monday 22 Dec 2014 (Local Time) from KTMK Reporting Station
Broken Clouds Broken Clouds  
Wind Chill: 54°   Ceiling: 12000
Heat Index: 54°   Visibility: 10mi
Dew Point: 46°   Wind: 0mph
Humidity: 77%   Direction: NA
Pressure: 30.34"   Gusts: NA
Location:  45.43°N, 123.95°W
Report Text: KTMK 222335Z AUTO 00000KT 10SM SCT100 BKN120 12/08 A3034 RMK AO2
Loading
Personal Weather Stations






























Interactive Weather Map New forecast layout! Learn more

10-Day Weather Forecast

Advertisements
Track Severe Weather on mobile